createdAt,value
2023-02-22T01:11:55.301Z,4.06
2023-02-22T01:14:23.729Z,4.09
2023-02-22T01:16:51.059Z,4.01
2023-02-22T01:19:17.606Z,4.07
2023-02-22T01:21:44.034Z,4.05
2023-02-22T01:24:10.515Z,4.10
2023-02-22T01:26:38.415Z,4.11
2023-02-22T01:29:05.094Z,4.13
2023-02-22T01:31:31.689Z,4.07
2023-02-22T01:33:58.213Z,3.99
2023-02-22T01:36:24.678Z,3.97
2023-02-22T01:38:51.115Z,3.98
2023-02-22T01:41:18.489Z,3.94
2023-02-22T01:43:45.867Z,4.00
2023-02-22T01:46:26.966Z,3.85
2023-02-22T01:49:05.941Z,3.94
2023-02-22T01:51:37.722Z,3.95
2023-02-22T01:54:10.101Z,3.97
2023-02-22T01:56:41.359Z,3.92
2023-02-22T01:59:10.949Z,3.98
2023-02-22T02:01:39.909Z,3.94
2023-02-22T02:04:11.851Z,3.97
2023-02-22T02:10:21.641Z,3.95
2023-02-22T02:12:51.090Z,3.85
2023-02-22T02:15:26.413Z,3.90
2023-02-22T02:17:54.898Z,3.96
2023-02-22T02:20:32.698Z,3.89
2023-02-22T02:23:14.497Z,3.83
2023-02-22T02:28:50.610Z,3.82
2023-02-22T02:31:27.632Z,3.79
2023-02-22T02:34:04.252Z,3.75
2023-02-22T02:36:49.033Z,3.57
2023-02-22T02:39:52.158Z,3.52
2023-02-22T02:42:22.876Z,3.47
2023-02-22T02:45:15.427Z,3.38
2023-02-22T02:47:47.961Z,3.40
2023-02-22T02:50:30.662Z,3.38
2023-02-22T02:53:02.455Z,3.26
2023-02-22T02:55:31.696Z,3.23
2023-02-22T02:57:59.357Z,3.21
2023-02-22T03:00:31.827Z,3.15
2023-02-22T03:03:16.837Z,3.20
2023-02-22T03:06:24.445Z,3.23
2023-02-22T03:09:03.650Z,3.19
2023-02-22T03:12:02.169Z,3.25
2023-02-22T03:14:45.510Z,3.29
2023-02-22T03:17:16.087Z,3.35
2023-02-22T03:19:47.584Z,3.28
2023-02-22T03:22:50.893Z,3.29
2023-02-22T03:25:22.982Z,3.10
2023-02-22T03:27:53.987Z,3.13
2023-02-22T03:30:26.643Z,3.22
2023-02-22T03:32:59.473Z,3.09
2023-02-22T03:35:31.995Z,3.12
2023-02-22T03:38:02.043Z,3.16
2023-02-22T03:40:33.486Z,3.06
2023-02-22T03:43:05.007Z,3.08
2023-02-22T03:45:32.152Z,3.10
2023-02-22T03:48:21.673Z,3.12
2023-02-22T03:50:49.598Z,3.08
2023-02-22T03:53:18.625Z,3.14
2023-02-22T03:55:51.788Z,3.17
2023-02-22T03:58:21.758Z,3.23
2023-02-22T04:00:53.008Z,3.26
2023-02-22T04:03:21.404Z,3.25
2023-02-22T04:05:48.088Z,3.21
2023-02-22T04:08:14.970Z,3.19
2023-02-22T04:10:41.581Z,3.20
2023-02-22T04:13:08.171Z,3.23
2023-02-22T04:15:35.228Z,3.29
2023-02-22T04:18:01.664Z,3.27
2023-02-22T04:20:28.075Z,3.31
2023-02-22T04:22:55.643Z,3.30
2023-02-22T04:25:23.709Z,3.35
2023-02-22T04:27:50.297Z,3.35
2023-02-22T04:30:18.741Z,3.27
2023-02-22T04:32:45.609Z,3.28
2023-02-22T04:35:12.350Z,3.07
2023-02-22T04:37:38.908Z,3.09
2023-02-22T04:40:09.129Z,3.08
2023-02-22T04:42:36.380Z,3.11
2023-02-22T04:45:04.112Z,3.15
2023-02-22T04:47:30.586Z,3.09
2023-02-22T04:49:57.197Z,3.13
2023-02-22T04:52:23.656Z,3.08
2023-02-22T04:54:50.750Z,3.21
2023-02-22T04:57:17.202Z,2.96
2023-02-22T04:59:43.659Z,3.06
2023-02-22T05:02:10.135Z,2.88
2023-02-22T05:04:38.505Z,2.93
2023-02-22T05:07:05.161Z,3.10
2023-02-22T05:09:31.566Z,3.18
2023-02-22T07:51:02.867Z,3.43
2023-02-22T07:53:31.669Z,3.58
2023-02-22T07:55:58.805Z,3.65
2023-02-22T07:58:27.435Z,3.64
2023-02-22T08:00:54.615Z,3.48
2023-02-22T08:03:23.867Z,3.41
2023-02-22T08:05:56.116Z,3.55
2023-02-22T09:21:59.988Z,4.02
2023-02-22T09:24:27.343Z,4.07
2023-02-22T09:26:54.147Z,3.83
2023-02-22T09:29:25.704Z,4.04
2023-02-22T09:31:54.750Z,4.25
2023-02-22T09:34:29.406Z,4.21
2023-02-22T09:36:57.872Z,3.89
2023-02-22T09:39:24.777Z,4.12
2023-02-22T09:42:09.915Z,4.36
2023-02-22T09:45:03.446Z,4.14
2023-02-22T09:47:41.194Z,4.06
2023-02-22T09:50:16.293Z,4.21
2023-02-22T09:53:00.621Z,4.37
2023-02-22T09:55:34.817Z,4.00
2023-02-22T09:58:14.048Z,4.36
2023-02-22T10:00:43.748Z,4.06
2023-02-22T10:03:34.621Z,4.22
2023-02-22T10:06:10.556Z,4.42
2023-02-22T10:08:41.722Z,4.54
2023-02-22T10:11:10.815Z,4.52
2023-02-22T10:13:48.651Z,4.60
2023-02-22T10:16:24.184Z,4.86
2023-02-22T10:19:15.070Z,5.03
2023-02-22T10:22:05.186Z,4.92
2023-02-22T10:24:39.763Z,4.96
2023-02-22T10:27:18.930Z,5.20
2023-02-22T10:29:53.013Z,5.24
2023-02-22T10:32:26.144Z,5.25
2023-02-22T10:34:55.379Z,5.36
2023-02-22T10:37:31.215Z,5.26
2023-02-22T10:40:23.967Z,5.41
2023-02-22T10:42:50.604Z,5.29
2023-02-22T10:45:34.521Z,5.28
2023-02-22T10:48:08.427Z,5.39
2023-02-22T10:50:37.558Z,5.42
2023-02-22T10:53:04.084Z,5.22
2023-02-22T10:55:31.217Z,5.17
2023-02-22T10:58:04.633Z,5.33
2023-02-22T11:00:37.211Z,5.12
2023-02-22T11:03:17.674Z,5.22
2023-02-22T11:05:44.951Z,5.35
2023-02-22T11:08:20.628Z,5.45
2023-02-22T11:10:48.921Z,5.34
2023-02-22T11:13:25.972Z,5.23
2023-02-22T11:15:54.561Z,5.34
2023-02-22T11:18:27.536Z,5.27
2023-02-22T11:21:07.628Z,5.52
2023-02-22T11:23:36.193Z,5.40
2023-02-22T11:26:20.319Z,5.31
2023-02-22T11:28:50.993Z,5.12
2023-02-22T11:31:22.275Z,4.97
2023-02-22T11:33:59.342Z,5.23
2023-02-22T11:36:42.870Z,5.29
2023-02-22T11:39:34.627Z,5.36
2023-02-22T11:42:23.106Z,5.27
2023-02-22T11:44:57.014Z,5.32
2023-02-22T11:47:24.659Z,5.43
2023-02-22T11:49:53.454Z,5.25
2023-02-22T11:52:32.239Z,5.08
2023-02-22T11:55:09.881Z,5.25
2023-02-22T11:57:46.344Z,5.29
2023-02-22T12:00:24.901Z,5.31
2023-02-22T12:03:13.709Z,5.22
2023-02-22T12:06:10.615Z,5.16
2023-02-22T12:08:37.492Z,5.08
2023-02-22T12:11:03.926Z,5.15
2023-02-22T12:13:48.506Z,5.26
2023-02-22T12:16:44.234Z,5.26
2023-02-22T12:19:19.544Z,5.15
2023-02-22T12:21:53.155Z,5.32
2023-02-22T12:24:24.118Z,5.51
2023-02-22T12:26:56.912Z,5.65
2023-02-22T12:29:30.961Z,5.48
2023-02-22T12:32:26.782Z,5.70
2023-02-22T12:34:59.506Z,5.61
2023-02-22T12:37:51.106Z,5.65
2023-02-22T12:40:29.619Z,5.84
2023-02-22T12:42:56.008Z,5.50
2023-02-22T12:45:36.558Z,5.34
2023-02-22T12:48:26.239Z,5.46
2023-02-22T12:50:59.254Z,5.52
2023-02-22T12:53:31.273Z,5.63
2023-02-22T12:56:25.724Z,5.65
2023-02-22T12:59:10.065Z,5.61
2023-02-22T13:01:46.745Z,5.64
2023-02-22T13:04:21.073Z,5.67
2023-02-22T13:07:23.974Z,5.04
2023-02-22T13:10:02.408Z,5.18
2023-02-22T13:12:36.760Z,5.34
2023-02-22T13:15:09.314Z,5.31
2023-02-22T13:17:54.783Z,5.12
2023-02-22T13:20:41.217Z,5.38
2023-02-22T13:23:26.294Z,5.47
2023-02-22T13:26:29.028Z,5.66
2023-02-22T13:29:04.438Z,5.67
2023-02-22T13:31:55.610Z,5.54
2023-02-22T13:34:40.203Z,5.59
2023-02-22T13:37:14.355Z,5.34
2023-02-22T13:39:54.723Z,5.48
2023-02-22T13:43:03.751Z,5.52
2023-02-22T13:45:39.339Z,5.66
2023-02-22T13:48:17.662Z,5.70
2023-02-22T13:51:02.634Z,5.83
2023-02-22T13:53:39.656Z,5.81
2023-02-22T13:56:07.091Z,5.87
2023-02-22T15:42:20.924Z,5.21
2023-02-22T15:58:18.026Z,5.19
2023-02-22T16:00:49.866Z,5.15
2023-02-22T16:03:23.097Z,5.14
2023-02-22T16:05:53.115Z,5.08
2023-02-22T16:08:24.103Z,5.09
2023-02-22T16:11:02.812Z,5.03
2023-02-22T16:13:33.219Z,4.90
2023-02-22T16:16:04.411Z,4.94
2023-02-22T16:18:36.820Z,4.93
2023-02-22T16:21:05.331Z,4.84
2023-02-22T16:23:33.543Z,4.94
2023-02-22T16:39:30.736Z,4.70
2023-02-22T16:42:00.307Z,4.63
2023-02-22T16:44:27.642Z,4.54
2023-02-22T16:46:56.260Z,4.55
2023-02-22T16:49:25.915Z,4.56
2023-02-22T16:52:03.291Z,4.55
2023-02-22T16:54:43.186Z,4.51
2023-02-22T16:57:17.652Z,4.48
2023-02-22T16:59:44.816Z,4.52
2023-02-22T17:02:15.584Z,4.40
2023-02-22T17:04:43.886Z,4.45
2023-02-22T17:07:10.393Z,4.46
2023-02-22T17:09:36.840Z,4.38
2023-02-22T17:12:03.554Z,4.39
2023-02-22T17:35:27.284Z,4.12
2023-02-22T18:33:30.775Z,3.73
2023-02-22T18:35:59.498Z,3.79
2023-02-22T18:38:26.420Z,3.75
2023-02-22T18:40:59.868Z,3.69
2023-02-22T18:43:26.990Z,3.78
2023-02-22T18:45:53.834Z,3.68
2023-02-22T18:48:20.369Z,3.73
2023-02-22T18:50:46.842Z,3.63
2023-02-22T18:53:13.308Z,3.58
2023-02-22T18:55:39.910Z,3.61
2023-02-22T18:58:06.362Z,3.52
2023-02-22T19:00:35.233Z,3.56
2023-02-22T19:03:01.782Z,3.58
2023-02-22T19:05:28.652Z,3.56
2023-02-22T19:07:55.152Z,3.59
2023-02-22T19:10:22.526Z,3.53
2023-02-22T19:12:49.126Z,3.51
2023-02-22T19:15:15.633Z,3.56
2023-02-22T19:17:42.902Z,3.45
2023-02-22T19:20:10.669Z,3.46
2023-02-22T19:25:05.087Z,3.32
2023-02-22T19:27:33.895Z,3.37
2023-02-22T19:30:00.712Z,3.44
2023-02-22T19:32:27.384Z,3.45
2023-02-22T19:35:02.235Z,3.35
2023-02-22T19:37:34.158Z,3.22
2023-02-22T19:40:02.812Z,3.27
2023-02-22T19:42:29.693Z,3.28
2023-02-22T19:44:56.173Z,3.31
2023-02-22T19:47:22.633Z,3.24
2023-02-22T19:49:50.269Z,3.31
2023-02-22T19:52:17.002Z,3.32
2023-02-22T19:54:44.456Z,3.29
2023-02-22T19:57:11.564Z,3.30
2023-02-22T19:59:39.019Z,3.26
2023-02-22T20:02:06.204Z,3.24
2023-02-22T20:04:34.136Z,3.25
2023-02-22T20:07:00.670Z,3.22
2023-02-22T20:09:36.217Z,3.21
2023-02-22T20:12:06.784Z,3.13
2023-02-22T20:14:34.136Z,3.10
2023-02-22T20:17:01.029Z,3.11
2023-02-22T20:19:28.435Z,3.10
2023-02-22T20:21:56.136Z,3.00
2023-02-22T20:24:23.923Z,2.99
2023-02-22T20:26:51.387Z,3.01
2023-02-22T20:29:17.898Z,3.01
2023-02-22T20:31:49.134Z,3.01
2023-02-22T20:34:15.661Z,2.96
2023-02-22T20:36:42.272Z,2.89
2023-02-22T20:39:13.331Z,2.90
2023-02-22T20:41:42.492Z,2.85
2023-02-22T20:44:13.466Z,2.81
2023-02-22T20:46:39.981Z,2.80
2023-02-22T20:49:08.831Z,2.74
2023-02-22T20:51:35.703Z,2.69
2023-02-22T20:54:02.408Z,2.70
2023-02-22T20:56:31.578Z,2.66
2023-02-22T20:59:00.480Z,2.61
2023-02-22T21:01:27.264Z,2.62
2023-02-22T21:03:53.916Z,2.56
2023-02-22T21:06:21.888Z,2.58
2023-02-22T21:08:57.279Z,2.52
2023-02-22T21:11:25.847Z,2.49
2023-02-22T21:13:53.206Z,2.45
2023-02-22T21:16:25.824Z,2.45
2023-02-22T21:19:00.104Z,2.39
2023-02-22T21:21:27.920Z,2.41
2023-02-22T21:23:56.394Z,2.38
2023-02-22T21:26:29.642Z,2.40
2023-02-22T21:29:00.389Z,2.39
2023-02-22T21:31:27.770Z,2.36
2023-02-22T21:33:56.371Z,2.32
2023-02-22T21:36:26.673Z,2.28
2023-02-22T21:38:56.198Z,2.24
2023-02-22T21:41:33.948Z,2.27
2023-02-22T21:44:00.523Z,2.19
2023-02-22T21:46:29.230Z,2.20
2023-02-22T21:48:59.048Z,2.15
2023-02-22T21:51:34.185Z,2.15
2023-02-22T21:54:03.251Z,2.16
2023-02-22T21:56:32.580Z,2.13
2023-02-22T21:59:05.259Z,2.04
2023-02-22T22:01:36.810Z,2.05
2023-02-22T22:04:04.352Z,2.04
2023-02-22T22:06:32.511Z,2.02
2023-02-22T22:09:04.610Z,2.02
2023-02-22T22:11:31.032Z,1.93
2023-02-22T22:13:58.955Z,1.89
2023-02-22T22:16:28.627Z,1.89
2023-02-22T22:18:55.350Z,1.89
2023-02-22T22:21:24.024Z,1.89
2023-02-22T22:23:55.817Z,1.86
2023-02-22T22:26:25.918Z,1.79
2023-02-22T22:28:56.127Z,1.79
2023-02-22T22:31:24.702Z,1.79
2023-02-22T22:33:51.959Z,1.79
2023-02-22T22:36:21.275Z,1.82
2023-02-22T22:38:48.647Z,1.80
2023-02-22T22:41:19.550Z,1.73
2023-02-22T22:43:47.074Z,1.76
2023-02-22T22:46:16.165Z,1.73
2023-02-22T22:48:46.688Z,1.72
2023-02-22T22:51:19.058Z,1.70
2023-02-22T22:53:47.842Z,1.70
2023-02-22T22:56:21.457Z,1.69
2023-02-22T22:58:54.265Z,1.75
2023-02-22T23:01:27.251Z,1.76
2023-02-22T23:04:01.607Z,1.70
2023-02-22T23:06:33.781Z,1.67
2023-02-22T23:09:01.826Z,1.65
2023-02-22T23:11:30.332Z,1.58
2023-02-22T23:13:56.835Z,1.64
2023-02-22T23:16:24.419Z,1.59
2023-02-22T23:18:51.428Z,1.60
2023-02-22T23:21:19.673Z,1.65
2023-02-22T23:23:51.269Z,1.60
2023-02-22T23:26:18.048Z,1.58
2023-02-22T23:28:47.120Z,1.44
2023-02-22T23:31:16.727Z,1.49
2023-02-22T23:33:45.253Z,1.41
2023-02-22T23:36:12.465Z,1.41
2023-02-22T23:38:41.774Z,1.36
2023-02-22T23:41:10.956Z,1.40
2023-02-22T23:43:41.531Z,1.38
2023-02-22T23:46:11.663Z,1.39
2023-02-22T23:48:39.142Z,1.44
2023-02-22T23:51:10.939Z,1.37
2023-02-22T23:53:39.226Z,1.35
2023-02-22T23:56:09.980Z,1.35
2023-02-22T23:58:38.427Z,1.34
